createdAt,value
2023-02-11T00:00:42.587Z,42.55
2023-02-11T00:03:09.747Z,40.70
2023-02-11T00:05:36.812Z,38.67
2023-02-11T00:08:03.520Z,37.88
2023-02-11T00:10:30.232Z,41.25
2023-02-11T00:12:56.863Z,47.38
2023-02-11T00:15:23.436Z,43.25
2023-02-11T00:17:50.023Z,43.20
2023-02-11T00:20:16.661Z,40.65
2023-02-11T00:22:43.638Z,34.88
2023-02-11T00:25:10.253Z,39.75
2023-02-11T00:27:37.690Z,39.15
2023-02-11T00:30:05.306Z,42.80
2023-02-11T00:32:32.211Z,46.00
2023-02-11T00:34:58.807Z,40.90
2023-02-11T00:37:25.633Z,40.10
2023-02-11T00:39:52.488Z,43.08
2023-02-11T00:42:19.048Z,39.20
2023-02-11T00:44:45.702Z,38.58
2023-02-11T00:47:12.368Z,34.20
2023-02-11T00:49:40.355Z,39.55
2023-02-11T00:52:07.280Z,45.85
2023-02-11T00:54:33.894Z,34.67
2023-02-11T00:57:00.533Z,41.60
2023-02-11T00:59:27.336Z,44.17
2023-02-11T01:01:53.937Z,43.63
2023-02-11T01:04:20.457Z,43.05
2023-02-11T01:06:47.122Z,41.07
2023-02-11T01:09:13.754Z,38.75
2023-02-11T01:11:40.358Z,43.15
2023-02-11T01:14:06.908Z,42.25
2023-02-11T01:16:33.501Z,41.28
2023-02-11T01:19:00.215Z,33.78
2023-02-11T01:21:26.925Z,40.53
2023-02-11T01:23:53.424Z,44.67
2023-02-11T01:26:20.101Z,43.80
2023-02-11T01:28:46.763Z,40.67
2023-02-11T01:31:13.899Z,41.08
2023-02-11T01:33:40.984Z,32.30
2023-02-11T01:36:08.421Z,41.00
2023-02-11T01:38:35.978Z,40.70
2023-02-11T01:41:06.157Z,40.63
2023-02-11T01:43:37.104Z,40.00
2023-02-11T01:46:36.682Z,39.05
2023-02-11T01:49:06.511Z,45.75
2023-02-11T01:51:38.702Z,43.95
2023-02-11T01:54:27.337Z,41.50
2023-02-11T01:57:15.535Z,40.47
2023-02-11T02:00:13.160Z,43.20
2023-02-11T02:03:00.698Z,43.53
2023-02-11T02:05:37.831Z,41.15
2023-02-11T02:08:13.828Z,45.38
2023-02-11T02:10:44.942Z,40.00
2023-02-11T02:13:11.852Z,44.92
2023-02-11T02:15:41.536Z,38.72
2023-02-11T02:18:22.861Z,48.45
2023-02-11T02:21:27.634Z,44.83
2023-02-11T02:24:18.856Z,33.07
2023-02-11T02:26:45.354Z,42.33
2023-02-11T02:29:27.153Z,39.33
2023-02-11T02:32:30.866Z,42.22
2023-02-11T02:35:06.897Z,38.67
2023-02-11T02:38:08.188Z,41.28
2023-02-11T02:40:40.998Z,38.03
2023-02-11T02:43:09.833Z,40.97
2023-02-11T02:45:36.353Z,42.35
2023-02-11T02:48:03.144Z,40.20
2023-02-11T02:50:33.943Z,46.43
2023-02-11T02:53:26.693Z,44.03
2023-02-11T02:56:37.878Z,42.97
2023-02-11T02:59:10.766Z,43.97
2023-02-11T03:01:43.625Z,43.00
2023-02-11T03:04:10.171Z,46.20
2023-02-11T03:06:47.038Z,44.47
2023-02-11T03:09:24.138Z,42.38
2023-02-11T03:11:50.750Z,43.03
2023-02-11T03:14:19.266Z,43.25
2023-02-11T03:16:48.376Z,42.20
2023-02-11T03:19:26.744Z,45.92
2023-02-11T03:21:54.832Z,45.40
2023-02-11T03:24:30.635Z,41.95
2023-02-11T03:27:01.493Z,41.78
2023-02-11T03:29:37.480Z,41.80
2023-02-11T03:32:16.009Z,42.20
2023-02-11T03:34:59.082Z,44.67
2023-02-11T03:37:50.824Z,41.95
2023-02-11T03:40:26.862Z,42.47
2023-02-11T03:42:59.611Z,44.30
2023-02-11T03:45:27.724Z,42.25
2023-02-11T03:48:01.517Z,44.58
2023-02-11T03:50:32.474Z,41.03
2023-02-11T03:53:01.967Z,44.63
2023-02-11T03:55:29.907Z,44.03
2023-02-11T03:57:56.837Z,44.35
2023-02-11T04:00:33.631Z,48.25
2023-02-11T04:03:00.418Z,45.95
2023-02-11T04:05:27.205Z,38.45
2023-02-11T04:07:53.823Z,45.65
2023-02-11T04:10:20.556Z,44.90
2023-02-11T04:12:47.132Z,47.72
2023-02-11T04:15:13.652Z,45.13
2023-02-11T04:17:41.343Z,49.95
2023-02-11T04:20:08.761Z,49.33
2023-02-11T04:22:36.159Z,45.85
2023-02-11T04:25:03.946Z,44.60
2023-02-11T04:27:30.587Z,44.70
2023-02-11T04:29:57.858Z,47.75
2023-02-11T04:32:24.409Z,45.33
2023-02-11T04:34:51.850Z,48.42
2023-02-11T04:37:18.516Z,47.90
2023-02-11T04:39:45.041Z,42.90
2023-02-11T04:42:12.294Z,48.25
2023-02-11T04:44:38.928Z,35.53
2023-02-11T04:47:05.519Z,34.00
2023-02-11T04:49:32.173Z,47.50
2023-02-11T04:51:58.742Z,32.55
2023-02-11T04:54:25.393Z,48.55
2023-02-11T04:56:51.979Z,52.03
2023-02-11T04:59:18.762Z,50.38
2023-02-11T05:01:45.286Z,51.33
2023-02-11T05:04:11.934Z,51.00
2023-02-11T05:06:39.693Z,36.97
2023-02-11T05:09:06.636Z,48.73
2023-02-11T05:11:33.328Z,52.03
2023-02-11T05:13:59.943Z,51.88
2023-02-11T05:16:26.456Z,58.38
2023-02-11T05:18:55.423Z,50.70
2023-02-11T05:21:22.452Z,55.20
2023-02-11T05:23:48.984Z,50.42
2023-02-11T05:26:16.247Z,44.03
2023-02-11T05:28:43.072Z,56.78
2023-02-11T05:31:10.557Z,50.53
2023-02-11T05:33:37.647Z,49.58
2023-02-11T05:36:07.477Z,51.00
2023-02-11T05:38:34.710Z,47.45
2023-02-11T05:41:01.424Z,57.08
2023-02-11T05:43:28.061Z,55.58
2023-02-11T05:45:54.837Z,61.05
2023-02-11T05:48:21.516Z,55.33
2023-02-11T05:50:48.118Z,48.13
2023-02-11T05:53:14.795Z,58.03
2023-02-11T05:55:41.647Z,62.22
2023-02-11T05:58:08.319Z,63.95
2023-02-11T06:00:35.594Z,59.13
2023-02-11T06:03:04.177Z,53.70
2023-02-11T06:05:31.319Z,43.30
2023-02-11T06:07:58.055Z,62.58
2023-02-11T06:10:24.618Z,62.37
2023-02-11T06:12:51.231Z,60.65
2023-02-11T06:15:18.022Z,64.65
2023-02-11T06:17:44.728Z,65.18
2023-02-11T06:20:11.518Z,58.33
2023-02-11T06:22:38.214Z,60.45
2023-02-11T06:25:05.507Z,48.50
2023-02-11T06:27:32.185Z,68.53
2023-02-11T06:29:58.773Z,63.10
2023-02-11T06:32:43.301Z,54.88
2023-02-11T06:35:12.347Z,63.83
2023-02-11T06:37:41.543Z,64.25
2023-02-11T06:40:09.561Z,72.13
2023-02-11T06:42:38.668Z,59.45
2023-02-11T06:45:06.171Z,66.15
2023-02-11T06:47:32.930Z,61.72
2023-02-11T06:49:59.729Z,67.03
2023-02-11T06:52:26.342Z,71.15
2023-02-11T06:54:52.869Z,67.97
2023-02-11T06:57:19.659Z,69.85
2023-02-11T06:59:46.994Z,71.60
2023-02-11T07:02:13.529Z,64.30
2023-02-11T07:04:40.092Z,65.10
2023-02-11T07:07:06.640Z,56.42
2023-02-11T07:09:33.235Z,64.15
2023-02-11T07:11:59.868Z,64.68
2023-02-11T07:14:26.444Z,57.30
2023-02-11T07:16:53.038Z,63.30
2023-02-11T07:19:20.006Z,61.45
2023-02-11T07:21:46.682Z,67.93
2023-02-11T07:24:13.193Z,65.70
2023-02-11T07:26:40.820Z,50.67
2023-02-11T07:29:07.386Z,68.50
2023-02-11T07:31:34.131Z,64.50
2023-02-11T07:34:01.807Z,65.20
2023-02-11T07:36:31.688Z,65.05
2023-02-11T07:38:58.713Z,73.53
2023-02-11T07:41:26.017Z,69.50
2023-02-11T07:43:52.750Z,59.53
2023-02-11T07:46:22.514Z,62.22
2023-02-11T07:48:49.405Z,68.72
2023-02-11T07:51:19.001Z,73.93
2023-02-11T07:53:46.524Z,64.88
2023-02-11T07:56:15.188Z,57.65
2023-02-11T07:58:43.038Z,62.70
2023-02-11T08:01:12.294Z,59.13
2023-02-11T08:03:39.859Z,56.83
2023-02-11T08:06:08.826Z,65.07
2023-02-11T08:08:35.479Z,64.05
2023-02-11T08:11:14.690Z,69.57
2023-02-11T08:13:42.188Z,64.70
2023-02-11T08:16:09.446Z,66.38
2023-02-11T08:18:36.432Z,66.75
2023-02-11T08:21:07.967Z,64.65
2023-02-11T08:23:37.306Z,57.13
2023-02-11T08:26:06.312Z,66.03
2023-02-11T08:28:36.620Z,58.80
2023-02-11T08:31:12.559Z,66.50
2023-02-11T08:33:40.964Z,64.18
2023-02-11T08:36:12.277Z,71.03
2023-02-11T08:38:39.250Z,62.53
2023-02-11T08:41:06.500Z,59.28
2023-02-11T08:43:33.674Z,61.22
2023-02-11T08:46:02.320Z,66.47
2023-02-11T08:48:29.886Z,68.20
2023-02-11T08:50:57.312Z,62.28
2023-02-11T08:53:24.305Z,60.28
2023-02-11T08:55:52.746Z,66.97
2023-02-11T08:58:20.521Z,65.70
2023-02-11T09:00:48.840Z,66.47
2023-02-11T09:03:16.153Z,65.68
2023-02-11T09:05:47.271Z,60.78
2023-02-11T09:08:14.692Z,65.43
2023-02-11T09:10:41.369Z,63.92
2023-02-11T09:13:08.442Z,59.70
2023-02-11T09:15:35.368Z,62.13
2023-02-11T09:18:02.454Z,57.42
2023-02-11T09:20:29.140Z,58.20
2023-02-11T09:22:58.292Z,57.70
2023-02-11T09:25:25.098Z,64.32
2023-02-11T09:27:53.636Z,58.33
2023-02-11T09:30:21.063Z,57.95
2023-02-11T09:32:47.781Z,53.78
2023-02-11T09:35:14.444Z,51.33
2023-02-11T09:37:41.646Z,48.40
2023-02-11T09:40:09.152Z,50.63
2023-02-11T09:43:01.766Z,51.70
2023-02-11T09:45:31.275Z,50.83
2023-02-11T09:48:27.340Z,56.42
2023-02-11T09:51:00.387Z,48.75
2023-02-11T09:53:29.562Z,52.25
2023-02-11T09:55:59.960Z,46.85
2023-02-11T09:58:35.075Z,48.95
2023-02-11T10:01:12.835Z,49.35
2023-02-11T10:03:57.722Z,63.95
2023-02-11T10:06:48.934Z,48.60
2023-02-11T10:09:46.492Z,42.67
2023-02-11T10:12:22.175Z,51.13
2023-02-11T10:15:31.396Z,52.47
2023-02-11T10:18:16.315Z,47.08
2023-02-11T10:21:14.968Z,46.00
2023-02-11T10:23:46.585Z,47.13
2023-02-11T10:26:17.194Z,44.50
2023-02-11T10:28:49.522Z,50.95
2023-02-11T10:31:18.926Z,48.20
2023-02-11T10:34:09.666Z,42.28
2023-02-11T10:36:39.852Z,47.67
2023-02-11T10:39:21.460Z,48.20
2023-02-11T10:41:53.745Z,45.13
2023-02-11T10:44:28.785Z,46.22
2023-02-11T10:46:57.260Z,46.55
2023-02-11T10:49:35.117Z,39.67
2023-02-11T10:52:24.595Z,43.63
2023-02-11T10:55:00.268Z,51.47
2023-02-11T10:57:32.861Z,52.45
2023-02-11T11:00:06.907Z,43.67
2023-02-11T11:02:38.662Z,46.35
2023-02-11T11:05:36.048Z,48.67
2023-02-11T11:08:06.985Z,43.53
2023-02-11T11:10:45.806Z,51.10
2023-02-11T11:13:35.427Z,47.33
2023-02-11T11:16:14.259Z,41.97
2023-02-11T11:18:43.782Z,45.42
2023-02-11T11:21:30.228Z,41.88
2023-02-11T11:24:02.067Z,44.17
2023-02-11T11:26:56.893Z,38.83
2023-02-11T11:29:30.368Z,46.78
2023-02-11T11:32:01.184Z,42.47
2023-02-11T11:34:37.131Z,41.22
2023-02-11T11:37:24.518Z,38.50
2023-02-11T11:40:02.318Z,37.17
2023-02-11T11:42:35.342Z,37.25
2023-02-11T11:45:04.504Z,38.75
2023-02-11T11:47:42.253Z,33.60
2023-02-11T11:50:34.052Z,37.00
2023-02-11T11:53:21.742Z,37.85
2023-02-11T11:56:00.852Z,29.45
2023-02-11T11:58:28.709Z,35.13
2023-02-11T12:01:01.497Z,28.13
2023-02-11T12:03:48.879Z,32.10
2023-02-11T12:06:44.012Z,28.90
2023-02-11T12:09:52.983Z,32.05
2023-02-11T12:12:36.846Z,29.30
2023-02-11T12:15:39.177Z,27.33
2023-02-11T12:18:05.696Z,29.60
2023-02-11T12:20:40.628Z,31.13
2023-02-11T12:23:27.402Z,30.05
2023-02-11T12:26:13.760Z,29.33
2023-02-11T12:29:03.369Z,26.02
2023-02-11T12:31:49.363Z,28.13
2023-02-11T12:34:40.794Z,28.83
2023-02-11T12:37:27.607Z,28.40
2023-02-11T12:40:18.298Z,26.77
2023-02-11T12:43:18.238Z,27.35
2023-02-11T12:46:05.100Z,26.95
2023-02-11T12:48:49.833Z,27.15
2023-02-11T12:51:35.809Z,30.35
2023-02-11T12:54:24.283Z,31.65
2023-02-11T12:57:21.159Z,25.13
2023-02-11T12:59:50.895Z,31.58
2023-02-11T13:02:27.086Z,29.45
2023-02-11T13:05:19.459Z,28.77
2023-02-11T13:07:47.516Z,26.65
2023-02-11T13:10:13.983Z,26.30
2023-02-11T13:13:05.089Z,26.58
2023-02-11T13:15:32.902Z,25.65
2023-02-11T13:18:21.670Z,26.20
2023-02-11T13:20:52.156Z,29.88
2023-02-11T13:23:21.965Z,27.08
2023-02-11T13:25:58.612Z,25.70
2023-02-11T13:29:05.146Z,24.85
2023-02-11T13:31:32.219Z,26.73
2023-02-11T13:33:58.896Z,24.42
2023-02-11T13:36:27.674Z,26.05
2023-02-11T13:39:05.226Z,24.00
2023-02-11T13:41:39.125Z,23.02
2023-02-11T13:44:26.630Z,26.85
2023-02-11T13:47:02.219Z,27.92
2023-02-11T13:49:36.607Z,26.00
2023-02-11T13:52:06.618Z,26.45
2023-02-11T13:54:39.390Z,26.83
2023-02-11T13:57:20.963Z,24.02
2023-02-11T13:59:49.120Z,23.20
2023-02-11T14:02:49.714Z,25.25
2023-02-11T14:05:51.202Z,23.65
2023-02-11T14:08:43.499Z,28.10
2023-02-11T14:11:41.576Z,25.52
2023-02-11T14:14:08.303Z,23.13
2023-02-11T14:16:38.498Z,23.75
2023-02-11T14:19:06.705Z,20.48
2023-02-11T14:21:37.096Z,24.38
2023-02-11T14:24:07.050Z,22.42
2023-02-11T14:26:57.918Z,23.10
2023-02-11T14:29:45.914Z,20.08
2023-02-11T14:32:49.124Z,22.67
2023-02-11T14:35:40.165Z,22.65
2023-02-11T14:38:40.519Z,21.30
2023-02-11T14:41:16.104Z,22.02
2023-02-11T14:43:46.870Z,22.98
2023-02-11T14:46:16.496Z,23.92
2023-02-11T14:48:50.213Z,21.45
2023-02-11T14:51:25.746Z,21.17
2023-02-11T14:53:57.834Z,21.25
2023-02-11T14:56:31.056Z,18.98
2023-02-11T14:58:58.807Z,20.35
2023-02-11T15:01:35.260Z,20.45
2023-02-11T15:04:05.358Z,21.23
2023-02-11T15:06:36.535Z,18.70
2023-02-11T15:09:18.916Z,17.95
2023-02-11T15:11:48.544Z,18.13
2023-02-11T15:14:23.853Z,18.00
2023-02-11T15:16:56.213Z,19.35
2023-02-11T15:19:36.475Z,19.50
2023-02-11T15:22:27.154Z,18.02
2023-02-11T15:25:09.696Z,16.60
2023-02-11T15:27:44.992Z,18.90
2023-02-11T15:30:23.794Z,19.33
2023-02-11T15:33:00.024Z,19.92
2023-02-11T15:35:29.821Z,19.58
2023-02-11T15:37:58.677Z,17.52
2023-02-11T15:40:32.450Z,19.77
2023-02-11T15:43:04.392Z,18.17
2023-02-11T15:45:35.338Z,19.15
2023-02-11T15:48:17.553Z,19.15
2023-02-11T15:50:52.228Z,17.63
2023-02-11T15:53:25.102Z,18.02
2023-02-11T15:55:59.438Z,19.02
2023-02-11T15:58:26.063Z,17.92
2023-02-11T16:00:59.706Z,17.60
2023-02-11T16:03:32.465Z,17.42
2023-02-11T16:06:35.840Z,18.02
2023-02-11T16:09:08.393Z,16.30
2023-02-11T16:11:53.674Z,17.65
2023-02-11T16:14:27.692Z,18.02
2023-02-11T16:17:09.784Z,16.17
2023-02-11T16:19:42.636Z,18.23
2023-02-11T16:22:15.526Z,19.42
2023-02-11T16:24:42.434Z,17.83
2023-02-11T16:27:34.007Z,18.02
2023-02-11T16:30:00.705Z,15.88
2023-02-11T16:32:30.019Z,21.25
2023-02-11T16:34:58.645Z,17.25
2023-02-11T16:37:25.750Z,17.48
2023-02-11T16:39:58.601Z,19.58
2023-02-11T16:42:25.328Z,16.95
2023-02-11T16:44:51.937Z,15.52
2023-02-11T16:47:25.759Z,16.30
2023-02-11T16:49:52.995Z,16.55
2023-02-11T16:52:21.604Z,13.70
2023-02-11T16:54:48.324Z,12.75
2023-02-11T16:57:28.177Z,12.52
2023-02-11T16:59:58.145Z,13.05
2023-02-11T17:02:28.188Z,11.40
2023-02-11T17:04:56.369Z,12.40
2023-02-11T17:07:23.022Z,12.90
2023-02-11T17:09:49.815Z,12.90
2023-02-11T17:12:16.373Z,14.32
2023-02-11T17:14:43.544Z,13.88
2023-02-11T17:17:11.384Z,14.95
2023-02-11T17:19:38.710Z,12.70
2023-02-11T17:22:05.958Z,14.45
2023-02-11T17:24:32.793Z,12.55
2023-02-11T17:26:59.462Z,13.70
2023-02-11T17:29:26.124Z,13.32
2023-02-11T17:31:53.370Z,13.52
2023-02-11T17:34:21.793Z,13.45
2023-02-11T17:36:48.940Z,12.18
2023-02-11T17:39:15.743Z,11.80
2023-02-11T17:41:42.334Z,13.48
2023-02-11T17:44:12.154Z,14.60
2023-02-11T17:46:38.753Z,11.95
2023-02-11T17:49:05.477Z,12.05
2023-02-11T17:51:36.873Z,15.30
2023-02-11T17:54:10.410Z,14.55
2023-02-11T17:56:38.436Z,13.90
2023-02-11T17:59:06.391Z,15.80
2023-02-11T18:01:34.020Z,15.98
2023-02-11T18:04:01.157Z,13.45
2023-02-11T18:06:29.051Z,13.20
2023-02-11T18:08:58.030Z,15.15
2023-02-11T18:11:27.963Z,13.73
2023-02-11T18:13:54.633Z,14.48
2023-02-11T18:16:23.400Z,13.43
2023-02-11T18:18:50.766Z,13.55
2023-02-11T18:21:20.293Z,15.85
2023-02-11T18:23:48.053Z,13.63
2023-02-11T18:26:16.673Z,12.90
2023-02-11T18:28:45.859Z,15.50
2023-02-11T18:31:14.082Z,15.57
2023-02-11T18:33:42.110Z,15.40
2023-02-11T18:36:11.978Z,14.50
2023-02-11T18:38:39.251Z,15.38
2023-02-11T18:41:07.403Z,14.52
2023-02-11T18:43:34.903Z,16.83
2023-02-11T18:46:02.954Z,14.50
2023-02-11T18:48:29.743Z,18.23
2023-02-11T18:50:56.286Z,16.40
2023-02-11T18:53:24.540Z,14.15
2023-02-11T18:55:53.258Z,14.65
2023-02-11T18:58:21.291Z,13.88
2023-02-11T19:00:48.804Z,15.25
2023-02-11T19:03:15.664Z,14.88
2023-02-11T19:05:44.712Z,16.33
2023-02-11T19:08:11.601Z,15.32
2023-02-11T19:10:46.170Z,18.63
2023-02-11T19:13:13.727Z,16.95
2023-02-11T19:15:42.287Z,16.50
2023-02-11T19:18:09.261Z,15.75
2023-02-11T19:20:35.818Z,15.80
2023-02-11T19:23:02.621Z,14.80
2023-02-11T19:25:29.202Z,14.27
2023-02-11T19:27:55.823Z,13.95
2023-02-11T19:30:22.545Z,14.57
2023-02-11T19:32:52.425Z,13.75
2023-02-11T19:35:21.819Z,13.25
2023-02-11T19:37:48.680Z,14.43
2023-02-11T19:40:19.150Z,16.70
2023-02-11T19:42:45.852Z,13.65
2023-02-11T19:45:12.697Z,13.82
2023-02-11T19:47:39.272Z,15.20
2023-02-11T19:50:06.534Z,15.30
2023-02-11T19:52:33.142Z,14.80
2023-02-11T19:55:00.702Z,14.02
2023-02-11T19:57:27.361Z,16.52
2023-02-11T19:59:54.989Z,15.20
2023-02-11T20:02:21.902Z,15.25
2023-02-11T20:04:48.725Z,14.67
2023-02-11T20:07:15.718Z,14.73
2023-02-11T20:09:42.593Z,14.77
2023-02-11T20:12:09.706Z,15.27
2023-02-11T20:14:36.474Z,14.77
2023-02-11T20:17:03.229Z,13.97
2023-02-11T20:19:30.710Z,14.15
2023-02-11T20:21:57.540Z,13.07
2023-02-11T20:24:24.985Z,14.93
2023-02-11T20:26:55.273Z,13.88
2023-02-11T20:29:22.899Z,14.82
2023-02-11T20:31:50.244Z,13.43
2023-02-11T20:34:17.972Z,19.88
2023-02-11T20:36:51.486Z,17.58
2023-02-11T20:39:21.579Z,14.50
2023-02-11T20:41:48.920Z,14.63
2023-02-11T20:44:15.591Z,13.90
2023-02-11T20:46:46.317Z,14.32
2023-02-11T20:49:15.649Z,16.90
2023-02-11T20:51:42.766Z,14.82
2023-02-11T20:54:18.142Z,14.85
2023-02-11T20:56:47.949Z,16.17
2023-02-11T20:59:16.766Z,13.30
2023-02-11T21:01:47.961Z,12.35
2023-02-11T21:04:20.170Z,15.73
2023-02-11T21:06:49.467Z,15.50
2023-02-11T21:09:21.728Z,14.27
2023-02-11T21:11:49.807Z,15.38
2023-02-11T21:14:17.836Z,14.38
2023-02-11T21:16:45.261Z,14.73
2023-02-11T21:19:12.082Z,13.15
2023-02-11T21:21:39.200Z,15.32
2023-02-11T21:24:06.750Z,16.02
2023-02-11T21:26:35.373Z,17.13
2023-02-11T21:29:03.895Z,15.45
2023-02-11T21:31:32.291Z,14.90
2023-02-11T21:34:02.165Z,14.63
2023-02-11T21:36:29.875Z,17.00
2023-02-11T21:38:56.459Z,15.45
2023-02-11T21:41:23.099Z,11.95
2023-02-11T21:43:50.598Z,14.77
2023-02-11T21:46:17.953Z,15.77
2023-02-11T21:48:44.722Z,13.30
2023-02-11T21:51:15.213Z,15.25
2023-02-11T21:53:42.100Z,19.25
2023-02-11T21:56:10.362Z,19.15
2023-02-11T21:58:37.248Z,17.52
2023-02-11T22:01:14.999Z,14.38
2023-02-11T22:03:42.710Z,16.67
2023-02-11T22:06:15.731Z,17.27
2023-02-11T22:08:42.328Z,13.32
2023-02-11T22:11:12.138Z,13.35
2023-02-11T22:13:39.535Z,14.90
2023-02-11T22:16:08.984Z,17.80
2023-02-11T22:18:36.104Z,14.02
2023-02-11T22:21:06.198Z,14.75
2023-02-11T22:23:33.267Z,17.38
2023-02-11T22:26:04.784Z,14.60
2023-02-11T22:28:31.515Z,20.27
2023-02-11T22:30:58.736Z,14.63
2023-02-11T22:33:26.946Z,15.20
2023-02-11T22:36:01.734Z,18.70
2023-02-11T22:38:29.325Z,19.80
2023-02-11T22:40:55.969Z,19.30
2023-02-11T22:43:22.849Z,18.08
2023-02-11T22:45:50.448Z,15.20
2023-02-11T22:48:17.499Z,18.85
2023-02-11T22:50:44.501Z,17.50
2023-02-11T22:53:11.114Z,17.35
2023-02-11T22:55:39.128Z,17.80
2023-02-11T22:58:06.216Z,19.52
2023-02-11T23:00:37.886Z,17.00
2023-02-11T23:03:05.690Z,19.70
2023-02-11T23:05:38.950Z,19.08
2023-02-11T23:08:06.025Z,15.13
2023-02-11T23:10:35.021Z,15.35
2023-02-11T23:13:02.949Z,16.23
2023-02-11T23:15:29.940Z,21.67
2023-02-11T23:17:57.047Z,20.27
2023-02-11T23:20:23.622Z,25.10
2023-02-11T23:22:50.219Z,19.87
2023-02-11T23:25:16.860Z,21.23
2023-02-11T23:27:43.381Z,13.68
2023-02-11T23:30:10.649Z,18.00
2023-02-11T23:32:40.800Z,18.88
2023-02-11T23:35:07.596Z,19.23
2023-02-11T23:37:34.204Z,19.95
2023-02-11T23:40:00.789Z,19.20
2023-02-11T23:42:27.388Z,19.00
2023-02-11T23:44:54.011Z,16.85
2023-02-11T23:47:20.822Z,20.85
2023-02-11T23:49:47.453Z,16.63
2023-02-11T23:52:14.203Z,21.00
2023-02-11T23:54:40.942Z,17.48
2023-02-11T23:57:07.659Z,16.60
2023-02-11T23:59:34.254Z,20.33
